createdAt,value
2023-02-08T14:11:43.495Z,5.6
2023-02-08T14:13:00.419Z,5.5
2023-02-08T14:14:17.345Z,5.1
2023-02-08T14:15:34.271Z,5.3
2023-02-08T14:16:51.194Z,5.8
2023-02-08T14:18:08.118Z,5.9
2023-02-08T14:19:25.059Z,5.9
2023-02-08T14:20:41.991Z,5.8
2023-02-08T14:21:58.920Z,5.7
2023-02-08T14:23:15.854Z,6.3
2023-02-08T14:24:32.786Z,5.9
2023-02-08T14:25:49.706Z,6
2023-02-08T14:27:06.697Z,6.1
2023-02-08T14:28:23.623Z,6.2
2023-02-08T14:29:40.557Z,6.1
2023-02-08T14:30:57.501Z,6.1
2023-02-08T14:32:14.425Z,6
2023-02-08T14:33:31.361Z,6.7
2023-02-08T14:34:48.310Z,6.2
2023-02-08T14:36:05.255Z,5.8
2023-02-08T14:37:22.195Z,6.1
2023-02-08T14:38:39.132Z,6.2
2023-02-08T14:39:56.070Z,5.8
2023-02-08T14:41:13.010Z,6.8
2023-02-08T14:42:29.948Z,6.3
2023-02-08T14:43:46.997Z,6.3
2023-02-08T14:45:03.933Z,6.4
2023-02-08T14:46:20.875Z,6.7
2023-02-08T14:47:37.819Z,6.4
2023-02-08T14:48:54.780Z,6.8
2023-02-08T14:50:11.717Z,6.5
2023-02-08T14:51:28.666Z,6.3
2023-02-08T14:52:45.597Z,6.7
2023-02-08T14:55:19.487Z,6.1
2023-02-08T14:56:36.434Z,6.6
2023-02-08T14:57:53.391Z,6.4
2023-02-08T14:59:10.349Z,6.3
2023-02-08T15:01:50.235Z,6.6
2023-02-08T15:03:05.650Z,6.5
2023-02-08T15:04:22.609Z,6.9
2023-02-08T15:05:39.545Z,6.6
2023-02-08T15:06:56.498Z,7
2023-02-08T15:08:13.448Z,6.4
2023-02-08T15:09:30.394Z,6.9
2023-02-08T15:10:47.334Z,6.5
2023-02-08T15:12:04.267Z,6.6
2023-02-08T15:13:21.225Z,6.8
2023-02-08T15:14:38.161Z,6.9
2023-02-08T15:15:55.112Z,6.4
2023-02-08T15:17:12.066Z,6.9
2023-02-08T15:18:29.012Z,7.4
2023-02-08T15:19:45.962Z,7.1
2023-02-08T15:21:02.900Z,7
2023-02-08T15:22:19.000Z,7
2023-02-08T15:23:36.796Z,7.4
2023-02-08T15:24:53.748Z,7.6
2023-02-08T15:26:10.691Z,7
2023-02-08T15:27:27.633Z,7.1
2023-02-08T15:28:44.601Z,6.9
2023-02-08T15:30:01.553Z,6.9
2023-02-08T15:31:18.502Z,6.8
2023-02-08T15:32:35.446Z,6.6
2023-02-08T15:33:52.396Z,7.5
2023-02-08T15:35:09.413Z,7.2
2023-02-08T15:36:26.378Z,7
2023-02-08T15:37:43.320Z,6.8
2023-02-08T15:39:00.279Z,7
2023-02-08T15:40:17.247Z,6.8
2023-02-08T15:41:34.198Z,7.3
2023-02-08T15:42:51.144Z,7
2023-02-08T15:44:08.100Z,7.5
2023-02-08T15:45:25.069Z,6.9
2023-02-08T15:46:42.023Z,7.1
2023-02-08T15:47:58.970Z,7.7
2023-02-08T15:49:15.924Z,7
2023-02-08T15:50:32.891Z,7.4
2023-02-08T15:51:49.947Z,7.4
2023-02-08T15:53:06.909Z,8.2
2023-02-08T15:54:23.866Z,8.3
2023-02-08T15:55:40.819Z,8.1
2023-02-08T15:56:57.782Z,7.7
2023-02-08T15:58:14.727Z,7.6
2023-02-08T15:59:31.674Z,7.5
2023-02-08T16:00:48.634Z,8
2023-02-08T16:02:05.598Z,7.9
2023-02-08T16:03:22.550Z,7.3
2023-02-08T16:04:39.498Z,7
2023-02-08T16:05:56.462Z,7.5
2023-02-08T16:07:13.421Z,7.7
2023-02-08T16:09:52.783Z,7.4
2023-02-08T16:11:08.270Z,7.7
2023-02-08T16:12:25.227Z,7.3
2023-02-08T16:13:42.198Z,7.9
2023-02-08T16:14:59.161Z,7.7
2023-02-08T16:16:16.128Z,7.4
2023-02-08T16:17:33.000Z,7.7
2023-02-08T16:18:50.035Z,8
2023-02-08T16:20:07.009Z,7
2023-02-08T16:21:23.969Z,6.9
2023-02-08T16:22:40.926Z,7.7
2023-02-08T16:23:57.890Z,7.9
2023-02-08T16:25:14.857Z,7.7
2023-02-08T16:26:31.826Z,8.4
2023-02-08T16:27:48.777Z,7.6
2023-02-08T16:29:05.745Z,7.9
2023-02-08T16:30:22.711Z,7.9
2023-02-08T16:31:39.676Z,7.4
2023-02-08T16:32:56.635Z,7.2
2023-02-08T16:34:13.589Z,7.4
2023-02-08T16:35:30.556Z,7.9
2023-02-08T16:36:47.517Z,7.9
2023-02-08T16:38:04.469Z,8
2023-02-08T16:39:21.427Z,7.7
2023-02-08T16:40:38.404Z,7.6
2023-02-08T16:41:55.367Z,7.8
2023-02-08T16:43:12.431Z,7.4
2023-02-08T16:44:29.407Z,7.9
2023-02-08T16:45:46.363Z,7.4
2023-02-08T16:47:03.341Z,7.3
2023-02-08T16:48:20.293Z,7.8
2023-02-08T16:49:37.265Z,7.4
2023-02-08T16:50:54.220Z,7.8
2023-02-08T16:52:11.195Z,7.5
2023-02-08T16:53:28.161Z,6.9
2023-02-08T16:54:45.117Z,6.8
2023-02-08T16:56:02.092Z,7.3
2023-02-08T16:57:19.000Z,7.3
2023-02-08T16:58:36.028Z,7.3
2023-02-08T17:00:21.059Z,7.3
2023-02-08T17:01:36.495Z,7.6
2023-02-08T17:02:53.456Z,7.4
2023-02-08T17:04:10.410Z,7
2023-02-08T17:05:27.371Z,7.3
2023-02-08T17:06:44.340Z,7.7
2023-02-08T17:08:01.308Z,6.8
2023-02-08T17:09:18.265Z,7.1
2023-02-08T17:10:35.241Z,7.5
2023-02-08T17:11:52.206Z,7.5
2023-02-08T17:13:09.185Z,7.7
2023-02-08T17:14:26.142Z,7
2023-02-08T17:15:43.105Z,7.3
2023-02-08T17:17:00.087Z,7.6
2023-02-08T17:18:17.053Z,7.6
2023-02-08T17:19:34.013Z,7.7
2023-02-08T17:20:50.992Z,7.7
2023-02-08T17:22:07.964Z,7.6
2023-02-08T17:23:24.917Z,7.9
2023-02-08T17:24:41.893Z,7.6
2023-02-08T17:25:58.859Z,7.3
2023-02-08T17:27:15.848Z,7.6
2023-02-08T17:28:32.807Z,7.2
2023-02-08T17:29:49.769Z,7.4
2023-02-08T17:31:06.743Z,7.4
2023-02-08T17:32:23.703Z,7.6
2023-02-08T17:33:40.733Z,7.3
